Time;durP1;ratioP1;P1;durP2;ratioP2;P2;SDS_P1;SDS_P2;PMS_P1;PMS_P2;Temp;Humidity;BMP_temperature;BMP_pressure;BME280_temperature;BME280_humidity;BME280_pressure;Samples;Min_cycle;Max_cycle;Signal;HPM_P1;HPM_P2
2021/12/09 00:01:32;;;;;;;8.43;3.30;;;10.70;77.80;;;;;;5094264;28;20024;-68
2021/12/09 00:04:06;;;;;;;6.65;3.33;;;10.60;78.50;;;;;;5094166;28;20021;-67
2021/12/09 00:06:32;;;;;;;5.97;2.85;;;10.60;78.00;;;;;;5093835;28;20526;-67
2021/12/09 00:09:06;;;;;;;9.10;3.47;;;10.60;77.90;;;;;;5094313;28;20039;-66
2021/12/09 00:11:41;;;;;;;7.22;3.33;;;10.50;78.30;;;;;;5094049;28;20024;-67
2021/12/09 00:14:06;;;;;;;6.05;2.67;;;10.50;78.20;;;;;;5093923;28;20501;-67
2021/12/09 00:16:32;;;;;;;8.23;3.03;;;10.50;78.40;;;;;;5094030;28;20051;-67
2021/12/09 00:18:59;;;;;;;8.18;3.15;;;10.50;78.40;;;;;;5092989;28;20032;-67
2021/12/09 00:21:25;;;;;;;6.68;3.55;;;10.50;78.40;;;;;;5093900;28;20385;-65
2021/12/09 00:23:50;;;;;;;7.85;3.35;;;10.50;78.40;;;;;;5093900;28;20484;-67
2021/12/09 00:26:16;;;;;;;7.88;3.13;;;10.40;78.40;;;;;;5093750;28;20109;-66
2021/12/09 00:28:41;;;;;;;6.75;3.38;;;10.50;78.30;;;;;;5093821;28;20033;-67
2021/12/09 00:31:07;;;;;;;7.70;2.80;;;10.40;78.40;;;;;;5093375;28;20466;-64
2021/12/09 00:33:40;;;;;;;6.35;2.60;;;10.40;78.40;;;;;;5093392;28;20465;-67
2021/12/09 00:36:05;;;;;;;7.50;3.25;;;10.40;78.50;;;;;;5093750;28;20020;-66
2021/12/09 00:38:35;;;;;;;8.15;3.08;;;10.40;78.50;;;;;;5093863;28;20469;-66
2021/12/09 00:41:09;;;;;;;7.22;2.90;;;10.30;78.60;;;;;;5093683;28;20043;-67
2021/12/09 00:43:36;;;;;;;6.30;3.10;;;10.30;78.60;;;;;;5093540;28;20038;-67
2021/12/09 00:46:03;;;;;;;11.23;3.08;;;10.30;78.70;;;;;;5093351;28;20019;-67
2021/12/09 00:48:29;;;;;;;6.88;3.30;;;10.30;78.80;;;;;;5093288;28;20028;-66
2021/12/09 00:50:56;;;;;;;7.13;3.17;;;10.30;78.80;;;;;;5093340;28;20035;-66
2021/12/09 00:53:21;;;;;;;9.45;3.65;;;10.30;78.80;;;;;;5093411;28;20107;-66
2021/12/09 00:55:47;;;;;;;6.93;3.15;;;10.20;78.90;;;;;;5093311;28;20062;-66
2021/12/09 00:58:13;;;;;;;8.90;3.10;;;10.20;78.90;;;;;;5093317;28;20199;-67
2021/12/09 01:00:39;;;;;;;10.57;3.10;;;10.20;78.90;;;;;;5093298;28;20031;-64
2021/12/09 01:03:04;;;;;;;7.53;2.65;;;10.30;79.00;;;;;;5092938;28;20489;-66
2021/12/09 01:05:31;;;;;;;7.30;3.03;;;10.20;78.90;;;;;;5093229;28;20416;-63
2021/12/09 01:07:56;;;;;;;8.82;3.13;;;10.20;79.10;;;;;;5093183;28;20028;-65
2021/12/09 01:10:23;;;;;;;9.90;2.95;;;10.20;79.20;;;;;;5093360;28;20031;-67
2021/12/09 01:12:49;;;;;;;7.30;3.00;;;10.10;79.20;;;;;;5093185;28;20038;-67
2021/12/09 01:15:16;;;;;;;12.05;3.25;;;10.10;79.20;;;;;;5093197;28;20059;-67
2021/12/09 01:17:42;;;;;;;12.02;3.42;;;10.20;79.20;;;;;;5091972;28;20020;-67
2021/12/09 01:20:10;;;;;;;4.68;2.58;;;10.10;79.10;;;;;;5093345;28;20020;-67
2021/12/09 01:22:41;;;;;;;6.78;3.00;;;10.10;79.10;;;;;;5093382;28;20464;-65
2021/12/09 01:25:11;;;;;;;8.43;3.35;;;10.10;79.20;;;;;;5093026;28;20030;-66
2021/12/09 01:27:40;;;;;;;8.30;3.00;;;10.10;79.90;;;;;;5093126;28;20060;-67
2021/12/09 01:30:11;;;;;;;8.02;3.03;;;10.10;79.20;;;;;;5093353;28;20031;-67
2021/12/09 01:32:37;;;;;;;7.65;3.22;;;10.10;79.10;;;;;;5096787;28;20020;-66
2021/12/09 01:35:04;;;;;;;9.18;3.00;;;10.10;79.20;;;;;;5097237;28;20065;-67
2021/12/09 01:37:30;;;;;;;5.65;2.58;;;10.10;79.20;;;;;;5096939;28;20024;-67
2021/12/09 01:39:56;;;;;;;6.40;3.25;;;10.00;79.10;;;;;;5096999;28;20039;-66
2021/12/09 01:42:22;;;;;;;6.70;2.90;;;10.10;79.10;;;;;;5096956;28;20036;-67
2021/12/09 01:44:47;;;;;;;9.35;3.00;;;10.00;79.00;;;;;;5096928;28;20393;-65
2021/12/09 01:47:13;;;;;;;7.95;2.65;;;10.00;79.00;;;;;;5096534;28;20153;-65
2021/12/09 01:49:38;;;;;;;9.35;2.88;;;10.00;79.00;;;;;;5096844;28;20089;-67
2021/12/09 01:52:05;;;;;;;6.65;2.95;;;10.00;79.00;;;;;;5096560;28;20091;-66
2021/12/09 01:54:31;;;;;;;9.07;3.30;;;10.00;79.00;;;;;;5096926;28;20078;-65
2021/12/09 01:56:58;;;;;;;7.97;2.60;;;10.00;79.00;;;;;;5096485;28;20028;-66
2021/12/09 01:59:24;;;;;;;8.15;3.10;;;10.00;79.00;;;;;;5096670;28;20381;-65
2021/12/09 02:01:50;;;;;;;10.90;2.63;;;9.90;79.10;;;;;;5096186;28;20454;-65
2021/12/09 02:04:16;;;;;;;7.75;2.65;;;9.90;79.10;;;;;;5096556;28;20031;-66
2021/12/09 02:06:42;;;;;;;6.80;2.75;;;9.90;79.10;;;;;;5096593;28;20020;-64
2021/12/09 02:09:12;;;;;;;7.45;2.47;;;9.90;79.10;;;;;;5096103;28;20032;-66
2021/12/09 02:11:38;;;;;;;7.18;2.45;;;9.90;79.10;;;;;;5096299;28;20012;-66
2021/12/09 02:14:05;;;;;;;9.93;2.72;;;9.90;79.10;;;;;;5095048;28;20031;-67
2021/12/09 02:16:30;;;;;;;7.65;2.45;;;9.80;79.20;;;;;;5096229;28;20020;-65
2021/12/09 02:18:56;;;;;;;8.82;2.58;;;9.80;79.20;;;;;;5096261;28;20031;-66
2021/12/09 02:21:25;;;;;;;12.05;3.00;;;9.90;79.10;;;;;;5096225;28;20020;-63
2021/12/09 02:23:55;;;;;;;9.27;3.05;;;9.80;79.20;;;;;;5096058;28;20032;-67
2021/12/09 02:26:32;;;;;;;6.03;2.42;;;9.80;79.20;;;;;;5096159;28;20020;-66
2021/12/09 02:28:58;;;;;;;4.90;2.17;;;9.80;79.50;;;;;;5096153;28;20109;-67
2021/12/09 02:31:25;;;;;;;6.68;2.13;;;9.80;79.40;;;;;;5095670;28;20043;-66
2021/12/09 02:33:51;;;;;;;7.57;2.15;;;9.80;79.30;;;;;;5095956;28;20099;-66
2021/12/09 02:36:17;;;;;;;5.68;2.42;;;9.70;79.40;;;;;;5095921;28;20024;-67
2021/12/09 02:38:46;;;;;;;9.23;2.25;;;9.80;79.30;;;;;;5095905;28;20101;-66
2021/12/09 02:41:21;;;;;;;6.53;1.90;;;9.80;79.50;;;;;;5096109;28;20028;-67
2021/12/09 02:43:50;;;;;;;6.22;2.22;;;9.70;79.40;;;;;;5094874;28;20040;-65
2021/12/09 02:46:17;;;;;;;7.13;2.45;;;9.70;79.40;;;;;;5095850;28;20026;-66
2021/12/09 02:48:44;;;;;;;9.73;2.90;;;9.70;79.40;;;;;;5095490;28;20040;-65
2021/12/09 02:51:10;;;;;;;8.45;2.72;;;9.70;79.40;;;;;;5095681;28;20016;-66
2021/12/09 02:53:36;;;;;;;7.35;3.05;;;9.60;79.40;;;;;;5095485;28;20031;-66
2021/12/09 02:56:02;;;;;;;5.78;2.22;;;9.60;79.70;;;;;;5095614;28;20017;-65
2021/12/09 02:58:28;;;;;;;7.18;1.98;;;9.60;79.70;;;;;;5095096;28;20032;-65
2021/12/09 03:01:20;;;;;;;8.20;2.35;;;9.60;79.80;;;;;;5095677;28;20103;-66
2021/12/09 03:03:51;;;;;;;5.78;2.55;;;9.60;79.90;;;;;;5094215;28;20045;-64
2021/12/09 03:06:22;;;;;;;7.80;2.35;;;9.60;79.70;;;;;;5095514;28;20032;-65
2021/12/09 03:08:48;;;;;;;9.32;2.53;;;9.60;79.80;;;;;;5095143;28;20397;-65
2021/12/09 03:11:16;;;;;;;7.63;2.25;;;9.60;79.70;;;;;;5095288;28;20020;-64
2021/12/09 03:13:44;;;;;;;8.00;2.47;;;9.50;79.70;;;;;;5094629;28;20107;-64
2021/12/09 03:16:10;;;;;;;8.32;3.05;;;9.50;79.80;;;;;;5095122;28;20093;-66
2021/12/09 03:18:44;;;;;;;6.38;2.50;;;9.60;79.80;;;;;;5095302;28;20028;-66
2021/12/09 03:21:29;;;;;;;7.90;2.15;;;9.50;79.90;;;;;;5095100;28;20093;-66
2021/12/09 03:23:56;;;;;;;4.93;2.08;;;9.50;80.00;;;;;;5094814;28;20065;-64
2021/12/09 03:26:29;;;;;;;5.90;2.25;;;9.50;80.10;;;;;;5095006;28;20111;-66
2021/12/09 03:28:57;;;;;;;6.93;1.98;;;9.50;80.20;;;;;;5094721;28;20393;-65
2021/12/09 03:31:23;;;;;;;5.25;2.20;;;9.50;80.30;;;;;;5094851;28;20127;-66
2021/12/09 03:33:48;;;;;;;6.28;2.00;;;9.40;80.20;;;;;;5094696;28;20055;-66
2021/12/09 03:36:14;;;;;;;4.85;1.98;;;9.40;80.20;;;;;;5094840;28;20059;-66
2021/12/09 03:38:41;;;;;;;7.45;2.40;;;9.40;80.20;;;;;;5094811;28;20385;-66
2021/12/09 03:41:07;;;;;;;5.85;2.47;;;9.40;80.90;;;;;;5094446;28;20027;-65
2021/12/09 03:43:33;;;;;;;8.45;2.65;;;9.40;80.40;;;;;;5094350;28;20111;-66
2021/12/09 03:45:59;;;;;;;5.78;2.15;;;9.40;80.50;;;;;;5094439;28;20012;-67
2021/12/09 03:48:27;;;;;;;7.30;1.98;;;9.40;80.70;;;;;;5094350;28;20036;-66
2021/12/09 03:50:52;;;;;;;10.32;1.90;;;9.30;80.70;;;;;;5094490;28;20080;-66
2021/12/09 03:53:18;;;;;;;6.90;2.40;;;9.40;80.70;;;;;;5094200;28;20465;-66
2021/12/09 03:55:44;;;;;;;6.63;2.55;;;9.30;80.80;;;;;;5093606;28;20020;-66
2021/12/09 03:58:09;;;;;;;8.20;2.22;;;9.30;80.90;;;;;;5094090;28;20107;-67
2021/12/09 04:00:35;;;;;;;9.63;2.17;;;9.30;80.90;;;;;;5094279;28;20051;-67
2021/12/09 04:03:01;;;;;;;8.13;2.10;;;9.30;81.10;;;;;;5094451;28;20024;-66
2021/12/09 04:05:27;;;;;;;6.53;2.05;;;9.30;81.10;;;;;;5094453;28;20030;-66
2021/12/09 04:07:53;;;;;;;5.70;2.08;;;9.30;81.20;;;;;;5094243;28;20035;-66
2021/12/09 04:10:19;;;;;;;8.68;2.42;;;9.20;81.30;;;;;;5093927;28;20101;-65
2021/12/09 04:12:44;;;;;;;8.63;2.15;;;9.20;81.40;;;;;;5093727;28;20055;-66
2021/12/09 04:15:11;;;;;;;6.95;2.47;;;9.30;81.60;;;;;;5092673;28;20055;-65
2021/12/09 04:17:37;;;;;;;10.85;2.13;;;9.30;81.70;;;;;;5094059;28;20032;-66
2021/12/09 04:20:05;;;;;;;5.90;2.17;;;9.20;81.70;;;;;;5093825;28;20027;-63
2021/12/09 04:22:31;;;;;;;8.95;2.35;;;9.30;81.70;;;;;;5093791;28;20020;-63
2021/12/09 04:24:56;;;;;;;9.00;2.42;;;9.20;81.70;;;;;;5093762;28;20084;-66
2021/12/09 04:27:23;;;;;;;6.57;2.70;;;9.20;81.90;;;;;;5093707;28;20075;-66
2021/12/09 04:29:49;;;;;;;6.22;2.20;;;9.20;81.90;;;;;;5092515;28;20139;-66
2021/12/09 04:32:14;;;;;;;8.18;2.75;;;9.20;81.80;;;;;;5093658;28;20551;-65
2021/12/09 04:34:41;;;;;;;7.22;2.00;;;9.20;81.80;;;;;;5093800;28;20065;-63
2021/12/09 04:37:06;;;;;;;6.25;2.30;;;9.20;81.80;;;;;;5093536;28;20377;-65
2021/12/09 04:39:32;;;;;;;10.05;2.60;;;9.20;81.80;;;;;;5093754;28;20465;-66
2021/12/09 04:41:58;;;;;;;7.38;2.10;;;9.20;81.90;;;;;;5093134;28;20054;-64
2021/12/09 04:44:23;;;;;;;12.65;2.97;;;9.20;82.10;;;;;;5093666;28;20103;-66
2021/12/09 04:46:50;;;;;;;9.40;2.60;;;9.10;81.90;;;;;;5093455;28;20024;-67
2021/12/09 04:49:16;;;;;;;7.25;2.30;;;9.10;82.00;;;;;;5093535;28;20109;-65
2021/12/09 04:51:42;;;;;;;5.65;2.20;;;9.30;79.20;;;;;;5093473;28;20058;-64
2021/12/09 04:54:08;;;;;;;6.68;2.13;;;9.20;76.30;;;;;;5093216;28;20067;-63
2021/12/09 04:56:35;;;;;;;5.55;2.15;;;9.20;75.10;;;;;;5092411;28;20016;-65
2021/12/09 04:59:01;;;;;;;8.80;2.17;;;9.10;75.50;;;;;;5089686;28;20020;-64
2021/12/09 05:01:27;;;;;;;7.47;2.20;;;9.00;75.50;;;;;;5087338;28;20020;-65
2021/12/09 05:03:53;;;;;;;6.90;2.58;;;9.00;75.50;;;;;;5091506;28;20107;-65
2021/12/09 05:06:19;;;;;;;6.47;2.45;;;9.00;75.70;;;;;;5090533;28;20103;-65
2021/12/09 05:08:47;;;;;;;4.47;2.05;;;8.90;76.20;;;;;;5092953;28;20473;-63
2021/12/09 05:11:47;;;;;;;9.35;2.20;;;8.90;76.60;;;;;;5093411;28;20024;-64
2021/12/09 05:14:15;;;;;;;7.63;1.80;;;8.90;76.80;;;;;;5093051;28;20032;-63
2021/12/09 05:16:41;;;;;;;6.78;2.40;;;8.80;77.20;;;;;;5093140;28;20040;-64
2021/12/09 05:19:06;;;;;;;7.32;1.92;;;8.80;77.50;;;;;;5093200;28;20551;-63
2021/12/09 05:21:37;;;;;;;5.45;2.00;;;8.80;77.50;;;;;;5093069;28;20419;-65
2021/12/09 05:24:03;;;;;;;6.25;2.22;;;8.90;77.80;;;;;;5091451;28;20377;-65
2021/12/09 05:26:34;;;;;;;7.88;1.95;;;8.80;77.80;;;;;;5081226;28;20009;-63
2021/12/09 05:29:00;;;;;;;6.40;3.08;;;8.80;78.20;;;;;;5081551;28;20119;-65
2021/12/09 05:34:12;;;;;;;4.72;1.75;;;8.80;78.70;;;;;;5074432;28;20082;-66
2021/12/09 05:36:38;;;;;;;5.25;1.95;;;8.80;78.60;;;;;;5083826;28;20099;-66
2021/12/09 05:39:07;;;;;;;8.27;2.30;;;8.80;79.10;;;;;;5091706;28;20024;-64
2021/12/09 05:41:33;;;;;;;5.75;2.25;;;8.80;78.40;;;;;;5085818;28;20071;-64
2021/12/09 05:44:03;;;;;;;4.82;2.25;;;8.80;79.00;;;;;;5084607;28;20389;-64
2021/12/09 05:46:29;;;;;;;6.40;2.35;;;8.80;79.30;;;;;;5087247;28;20461;-65
2021/12/09 05:48:55;;;;;;;7.22;2.58;;;8.80;79.10;;;;;;5084736;28;20044;-65
2021/12/09 05:51:25;;;;;;;7.80;2.17;;;8.80;79.50;;;;;;5081171;28;20016;-65
2021/12/09 05:53:51;;;;;;;6.20;2.70;;;8.80;79.30;;;;;;5092257;28;20062;-65
2021/12/09 05:56:17;;;;;;;6.00;2.10;;;8.80;79.10;;;;;;5076943;28;20032;-65
2021/12/09 05:58:43;;;;;;;6.15;2.00;;;8.90;79.10;;;;;;5086645;28;20074;-64
2021/12/09 06:01:09;;;;;;;5.75;2.25;;;8.80;79.70;;;;;;5085227;28;20021;-65
2021/12/09 06:03:34;;;;;;;8.93;2.17;;;8.90;79.60;;;;;;5090749;28;20039;-60
2021/12/09 06:06:01;;;;;;;7.57;2.22;;;8.80;79.80;;;;;;5077153;28;20043;-62
2021/12/09 06:08:27;;;;;;;5.53;2.17;;;8.80;80.00;;;;;;5090183;28;20040;-65
2021/12/09 06:10:53;;;;;;;5.47;2.42;;;8.80;80.80;;;;;;5092107;28;20112;-62
2021/12/09 06:13:19;;;;;;;6.25;2.60;;;8.80;80.50;;;;;;5092410;28;20130;-63
2021/12/09 06:15:46;;;;;;;7.57;2.65;;;8.70;80.80;;;;;;5092652;28;20103;-62
2021/12/09 06:18:12;;;;;;;7.22;3.20;;;8.70;80.60;;;;;;5088746;28;20032;-61
2021/12/09 06:20:37;;;;;;;8.57;2.85;;;8.70;80.90;;;;;;5087567;28;20078;-65
2021/12/09 06:23:03;;;;;;;6.60;2.17;;;8.70;81.00;;;;;;5074619;28;20039;-64
2021/12/09 06:25:30;;;;;;;7.05;2.03;;;8.70;80.80;;;;;;5074895;28;20033;-63
2021/12/09 06:27:56;;;;;;;7.30;2.35;;;8.80;80.90;;;;;;5075717;28;20066;-65
2021/12/09 06:30:23;;;;;;;5.70;2.25;;;8.80;80.60;;;;;;5080558;28;20040;-63
2021/12/09 06:32:49;;;;;;;16.05;2.20;;;8.80;80.50;;;;;;5080703;28;20025;-64
2021/12/09 06:35:18;;;;;;;10.02;2.33;;;8.90;82.90;;;;;;5077152;28;20020;-65
2021/12/09 06:37:45;;;;;;;7.75;2.50;;;9.00;84.00;;;;;;5087513;28;20024;-62
2021/12/09 06:40:17;;;;;;;8.40;2.47;;;9.00;84.00;;;;;;5096168;28;20016;-65
2021/12/09 06:42:44;;;;;;;9.55;2.63;;;9.10;83.80;;;;;;5085398;28;20023;-65
2021/12/09 06:45:11;;;;;;;7.57;2.80;;;9.10;83.90;;;;;;5095044;28;20035;-64
2021/12/09 06:47:37;;;;;;;8.30;2.88;;;9.10;83.90;;;;;;5100039;28;20035;-65
2021/12/09 06:50:05;;;;;;;8.50;3.13;;;9.10;83.90;;;;;;5096549;28;20040;-65
2021/12/09 06:52:30;;;;;;;8.55;2.72;;;9.10;84.10;;;;;;5081239;28;20051;-64
2021/12/09 06:54:56;;;;;;;11.52;3.38;;;9.10;84.30;;;;;;5081773;28;20059;-65
2021/12/09 06:57:22;;;;;;;8.80;3.63;;;9.10;84.40;;;;;;5094698;28;20020;-65
2021/12/09 06:59:47;;;;;;;7.90;2.45;;;9.10;84.60;;;;;;5088375;28;20087;-64
2021/12/09 07:02:13;;;;;;;8.55;2.80;;;9.10;84.90;;;;;;5081968;28;20468;-64
2021/12/09 07:04:38;;;;;;;9.93;3.35;;;9.10;85.00;;;;;;5072383;28;20029;-65
2021/12/09 07:07:04;;;;;;;9.60;3.45;;;9.10;85.00;;;;;;5074364;28;20039;-60
2021/12/09 07:09:31;;;;;;;16.42;3.55;;;9.20;85.10;;;;;;5075130;28;20055;-60
2021/12/09 07:11:57;;;;;;;10.00;2.45;;;9.20;85.20;;;;;;5075900;28;20106;-60
2021/12/09 07:14:24;;;;;;;9.65;2.63;;;9.20;85.40;;;;;;5094933;28;20477;-60
2021/12/09 07:16:49;;;;;;;14.18;3.20;;;9.30;85.80;;;;;;5085048;28;20048;-60
2021/12/09 07:19:15;;;;;;;7.30;2.85;;;9.50;85.90;;;;;;5074986;28;20072;-63
2021/12/09 07:21:40;;;;;;;9.52;2.75;;;9.50;85.50;;;;;;5079515;28;20054;-63
2021/12/09 07:24:06;;;;;;;12.38;2.95;;;9.40;84.70;;;;;;5075859;28;20389;-63
2021/12/09 07:26:32;;;;;;;6.60;2.78;;;9.40;85.10;;;;;;5088418;28;20036;-63
2021/12/09 07:28:58;;;;;;;7.55;3.03;;;9.40;84.80;;;;;;5084626;28;20119;-63
2021/12/09 07:31:25;;;;;;;10.90;2.92;;;9.40;84.80;;;;;;5074581;28;20078;-63
2021/12/09 07:33:52;;;;;;;13.15;3.22;;;9.40;84.70;;;;;;5073807;28;20032;-64
2021/12/09 07:36:17;;;;;;;8.88;2.88;;;9.40;84.90;;;;;;5074223;28;20129;-61
2021/12/09 07:38:46;;;;;;;10.20;3.53;;;9.40;85.10;;;;;;5074037;28;20424;-64
2021/12/09 07:41:12;;;;;;;6.85;2.58;;;9.40;86.00;;;;;;5093551;28;20023;-63
2021/12/09 07:43:38;;;;;;;10.93;3.50;;;9.40;85.80;;;;;;5094402;28;20435;-62
2021/12/09 07:46:04;;;;;;;9.13;3.00;;;9.50;85.90;;;;;;5094165;28;20023;-64
2021/12/09 07:48:29;;;;;;;8.85;3.05;;;9.50;86.30;;;;;;5093846;28;20062;-63
2021/12/09 07:50:55;;;;;;;11.10;2.95;;;9.50;86.30;;;;;;5078388;28;20702;-63
2021/12/09 07:53:22;;;;;;;8.95;3.05;;;9.60;86.50;;;;;;5073594;28;20020;-62
2021/12/09 07:55:49;;;;;;;8.43;2.28;;;9.60;86.70;;;;;;5088337;28;20090;-63
2021/12/09 07:58:14;;;;;;;10.85;2.90;;;9.60;87.10;;;;;;5082797;28;20421;-65
2021/12/09 08:00:40;;;;;;;7.40;2.67;;;9.70;87.20;;;;;;5072686;28;20031;-65
2021/12/09 08:03:06;;;;;;;9.50;2.75;;;9.70;87.60;;;;;;5072318;28;20512;-65
2021/12/09 08:05:37;;;;;;;6.95;2.90;;;9.80;87.80;;;;;;5082604;28;20043;-65
2021/12/09 08:08:04;;;;;;;9.33;2.80;;;9.70;87.80;;;;;;5091760;28;20055;-62
2021/12/09 08:10:29;;;;;;;7.15;2.95;;;9.70;87.40;;;;;;5092277;28;20321;-65
2021/12/09 08:12:57;;;;;;;9.27;2.95;;;9.70;87.80;;;;;;5092564;28;20051;-71
2021/12/09 08:15:22;;;;;;;9.15;3.22;;;9.80;88.30;;;;;;5091187;28;20028;-72
2021/12/09 08:18:42;;;;;;;7.53;3.13;;;9.80;88.30;;;;;;5092096;28;20077;-71
2021/12/09 08:20:37;;;;;;;8.50;2.83;;;9.90;88.50;;;;;;5086481;28;20093;-72
2021/12/09 08:23:03;;;;;;;10.15;3.25;;;9.90;89.00;;;;;;5092248;28;20439;-72
2021/12/09 08:25:29;;;;;;;7.72;3.00;;;9.90;88.50;;;;;;5081983;28;20547;-72
2021/12/09 08:27:54;;;;;;;7.05;2.70;;;9.90;88.60;;;;;;5071801;28;20028;-73
2021/12/09 08:30:25;;;;;;;6.60;2.72;;;9.90;88.70;;;;;;5072314;28;20028;-71
2021/12/09 08:32:51;;;;;;;7.40;3.10;;;10.00;89.80;;;;;;5070433;28;20470;-72
2021/12/09 08:35:16;;;;;;;7.85;3.33;;;10.00;89.50;;;;;;5072683;28;20032;-73
2021/12/09 08:37:44;;;;;;;10.30;2.38;;;10.00;89.40;;;;;;5085269;28;20024;-72
2021/12/09 08:40:11;;;;;;;7.18;4.03;;;10.00;89.70;;;;;;5091214;28;20016;-71
2021/12/09 08:42:36;;;;;;;5.72;3.05;;;10.00;89.20;;;;;;5092638;28;20021;-72
2021/12/09 08:45:06;;;;;;;5.60;2.80;;;10.00;89.10;;;;;;5091860;28;20108;-73
2021/12/09 08:47:32;;;;;;;9.35;2.80;;;10.10;89.40;;;;;;5092366;28;20012;-72
2021/12/09 08:49:57;;;;;;;6.47;3.28;;;10.10;89.90;;;;;;5089278;28;20033;-72
2021/12/09 08:52:23;;;;;;;8.02;4.15;;;10.10;88.50;;;;;;5089732;28;20020;-73
2021/12/09 08:54:48;;;;;;;6.60;2.90;;;10.00;87.50;;;;;;5104504;28;20024;-69
2021/12/09 08:57:14;;;;;;;9.90;2.83;;;10.00;87.70;;;;;;5077823;28;20056;-73
2021/12/09 08:59:40;;;;;;;5.45;3.17;;;10.10;88.20;;;;;;5073048;28;20032;-73
2021/12/09 09:02:06;;;;;;;6.65;2.97;;;10.10;87.80;;;;;;5072228;28;20055;-73
2021/12/09 09:04:32;;;;;;;5.43;3.05;;;10.20;88.20;;;;;;5083401;28;20504;-72
2021/12/09 09:06:59;;;;;;;5.82;2.78;;;10.10;88.20;;;;;;5074910;28;20009;-73
2021/12/09 09:09:27;;;;;;;7.13;3.10;;;10.20;88.50;;;;;;5094937;28;20055;-72
2021/12/09 09:11:54;;;;;;;7.00;2.67;;;10.20;88.70;;;;;;5092573;28;20032;-71
2021/12/09 09:14:20;;;;;;;7.20;3.20;;;10.20;88.70;;;;;;5092774;28;20028;-73
2021/12/09 09:16:46;;;;;;;9.57;2.75;;;10.30;89.00;;;;;;5085941;28;20024;-73
2021/12/09 09:19:13;;;;;;;5.47;3.22;;;10.40;89.40;;;;;;5089513;28;20028;-72
2021/12/09 09:21:39;;;;;;;8.48;3.72;;;10.40;89.10;;;;;;5092947;28;20032;-72
2021/12/09 09:24:05;;;;;;;6.85;2.92;;;10.40;89.30;;;;;;5088302;28;20067;-73
2021/12/09 09:26:31;;;;;;;6.93;2.67;;;10.40;88.80;;;;;;5076226;28;20060;-73
2021/12/09 09:28:57;;;;;;;7.68;3.47;;;10.50;89.50;;;;;;5082074;28;20056;-73
2021/12/09 09:31:27;;;;;;;7.63;3.28;;;10.50;89.40;;;;;;5072704;28;20023;-72
2021/12/09 09:33:53;;;;;;;7.38;3.70;;;10.50;89.60;;;;;;5082469;28;20020;-73
2021/12/09 09:36:18;;;;;;;7.93;3.05;;;10.60;89.30;;;;;;5073703;28;20086;-73
2021/12/09 09:38:44;;;;;;;9.88;3.13;;;10.60;89.70;;;;;;5072545;28;20431;-74
2021/12/09 09:41:15;;;;;;;6.43;2.60;;;10.60;89.90;;;;;;5071851;28;20019;-72
2021/12/09 09:46:19;;;;;;;8.25;3.30;;;10.60;88.60;;;;;;5078536;28;20040;-72
2021/12/09 09:48:46;;;;;;;7.03;4.47;;;10.60;88.20;;;;;;5075971;28;20034;-74
2021/12/09 09:51:12;;;;;;;10.38;4.53;;;10.70;88.40;;;;;;5086173;28;20020;-74
2021/12/09 09:53:41;;;;;;;7.28;3.00;;;10.70;87.60;;;;;;5089554;28;20032;-74
2021/12/09 09:56:13;;;;;;;7.40;3.55;;;10.70;87.70;;;;;;5083615;28;20389;-74
2021/12/09 09:58:44;;;;;;;7.40;3.75;;;10.60;87.20;;;;;;5081091;28;20020;-73
2021/12/09 10:01:09;;;;;;;9.63;3.88;;;10.60;86.80;;;;;;5091657;28;20058;-74
2021/12/09 10:03:42;;;;;;;9.65;3.28;;;10.60;86.70;;;;;;5095825;28;20051;-73
2021/12/09 10:06:09;;;;;;;6.07;3.38;;;10.60;86.70;;;;;;5090738;28;20020;-75
2021/12/09 10:08:36;;;;;;;9.38;4.35;;;10.60;86.90;;;;;;5086894;28;20109;-76
2021/12/09 10:11:02;;;;;;;11.60;4.57;;;10.60;86.70;;;;;;5090590;28;20024;-71
2021/12/09 10:13:46;;;;;;;11.15;5.40;;;10.60;87.10;;;;;;5088798;28;20040;-77
2021/12/09 10:16:25;;;;;;;10.43;5.32;;;10.70;86.70;;;;;;5091388;28;20017;-72
2021/12/09 10:18:53;;;;;;;10.40;5.35;;;10.60;87.00;;;;;;5080390;28;20850;-80
2021/12/09 10:21:24;;;;;;;8.07;4.47;;;10.60;87.30;;;;;;5086387;28;20024;-70
2021/12/09 10:24:03;;;;;;;6.85;3.63;;;10.70;87.00;;;;;;5085061;28;20028;-73
2021/12/09 10:26:30;;;;;;;8.23;3.40;;;10.80;87.50;;;;;;5076252;28;20021;-69
2021/12/09 10:29:13;;;;;;;8.15;3.42;;;10.80;87.50;;;;;;5083628;28;20508;-72
2021/12/09 10:31:44;;;;;;;8.35;3.22;;;10.80;87.20;;;;;;5093881;28;20068;-71
2021/12/09 10:34:26;;;;;;;7.00;4.00;;;10.90;87.50;;;;;;5081791;28;20041;-67
2021/12/09 10:36:58;;;;;;;10.02;4.07;;;10.90;87.20;;;;;;5084359;28;20016;-66
2021/12/09 10:39:36;;;;;;;8.55;3.90;;;10.90;87.10;;;;;;5094310;28;20032;-73
2021/12/09 10:42:09;;;;;;;9.15;4.40;;;10.90;87.20;;;;;;5084704;28;20422;-73
2021/12/09 10:44:47;;;;;;;7.95;3.55;;;10.90;87.20;;;;;;5076141;28;20032;-66
2021/12/09 10:47:23;;;;;;;8.70;4.15;;;10.90;87.30;;;;;;5084049;28;20032;-68
2021/12/09 10:50:16;;;;;;;11.35;3.83;;;11.00;87.80;;;;;;5091151;28;20027;-67
2021/12/09 10:52:50;;;;;;;;;;;11.00;87.80;;;;;;5081824;28;20401;-65
2021/12/09 10:55:36;;;;;;;7.93;4.07;;;11.00;87.60;;;;;;5077602;28;19908;-60
2021/12/09 10:58:04;;;;;;;9.60;4.00;;;10.90;87.50;;;;;;5075988;28;20116;-64
2021/12/09 11:00:54;;;;;;;11.02;4.10;;;11.00;87.90;;;;;;5085379;28;20503;-64
2021/12/09 11:03:28;;;;;;;7.82;3.40;;;11.10;87.90;;;;;;5079120;28;20074;-62
2021/12/09 11:05:56;;;;;;;10.45;4.63;;;11.10;87.50;;;;;;5082408;28;20043;-63
2021/12/09 11:08:24;;;;;;;11.70;4.53;;;11.20;87.50;;;;;;5083103;28;20032;-61
2021/12/09 11:10:57;;;;;;;8.18;4.50;;;11.10;87.00;;;;;;5075918;28;20020;-66
2021/12/09 11:13:22;;;;;;;13.02;3.00;;;11.10;87.00;;;;;;5078889;28;20045;-62
2021/12/09 11:15:56;;;;;;;10.55;2.75;;;11.20;87.60;;;;;;5076712;28;20482;-59
2021/12/09 11:18:39;;;;;;;14.43;3.95;;;11.50;88.30;;;;;;5074694;28;20111;-67
2021/12/09 11:21:30;;;;;;;12.60;3.47;;;11.70;86.90;;;;;;5081020;28;20355;-59
2021/12/09 11:24:00;;;;;;;10.23;3.00;;;11.70;86.80;;;;;;5081382;28;20024;-58
2021/12/09 11:26:41;;;;;;;15.25;3.10;;;11.60;87.00;;;;;;5076036;28;20028;-59
2021/12/09 11:29:34;;;;;;;8.25;2.42;;;11.70;86.70;;;;;;5077316;28;20047;-60
2021/12/09 11:32:08;;;;;;;10.63;3.08;;;11.80;86.50;;;;;;5079723;28;20038;-65
2021/12/09 11:34:42;;;;;;;7.40;2.33;;;11.80;86.60;;;;;;5076776;28;20115;-59
2021/12/09 11:37:34;;;;;;;9.52;2.92;;;11.90;86.50;;;;;;5082688;28;20036;-59
2021/12/09 11:40:28;;;;;;;11.30;3.40;;;11.90;86.40;;;;;;5079206;28;21576;-71
2021/12/09 11:42:59;;;;;;;8.38;3.38;;;11.90;86.30;;;;;;5076928;28;20047;-77
2021/12/09 11:45:30;;;;;;;10.27;3.30;;;11.90;86.50;;;;;;5074036;28;20032;-60
2021/12/09 11:47:57;;;;;;;10.17;3.27;;;11.90;86.60;;;;;;5082882;28;20038;-62
2021/12/09 11:50:28;;;;;;;12.07;2.75;;;11.90;86.70;;;;;;5083759;28;20035;-60
2021/12/09 11:52:56;;;;;;;7.60;3.17;;;11.90;87.20;;;;;;5080511;28;20048;-60
2021/12/09 11:55:29;;;;;;;10.20;4.32;;;11.90;87.10;;;;;;5071882;28;20024;-63
2021/12/09 11:58:01;;;;;;;9.60;4.78;;;11.90;86.50;;;;;;5079134;28;20024;-72
2021/12/09 12:14:54;;;;;;;10.52;4.40;;;12.00;87.20;;;;;;5076353;28;20474;-64
2021/12/09 12:17:33;;;;;;;9.05;3.47;;;12.00;87.40;;;;;;5074749;28;20043;-65
2021/12/09 12:20:23;;;;;;;15.13;5.22;;;12.00;87.80;;;;;;5093345;28;20489;-63
2021/12/09 12:23:07;;;;;;;8.90;4.70;;;12.10;87.50;;;;;;5078412;28;20511;-63
2021/12/09 12:34:52;;;;;;;9.63;3.63;;;12.00;86.50;;;;;;5071910;28;20032;-63
2021/12/09 12:37:18;;;;;;;8.82;3.03;;;12.10;87.20;;;;;;5065715;28;20244;-66
2021/12/09 12:40:02;;;;;;;14.50;6.30;;;12.20;87.50;;;;;;5043579;28;20032;-68
2021/12/09 12:42:46;;;;;;;10.75;4.60;;;12.10;86.00;;;;;;5083266;28;20027;-67
2021/12/09 12:50:35;;;;;;;12.05;5.47;;;12.00;85.70;;;;;;5075537;28;20373;-67
2021/12/09 12:53:32;;;;;;;8.73;3.60;;;12.00;86.30;;;;;;5084531;28;20433;-66
2021/12/09 12:56:16;;;;;;;13.32;5.45;;;12.10;87.20;;;;;;5070233;28;20044;-66
2021/12/09 12:59:18;;;;;;;10.73;4.95;;;12.20;86.80;;;;;;5076408;28;20024;-67
2021/12/09 13:02:13;;;;;;;9.05;3.55;;;12.20;86.20;;;;;;5063033;28;20498;-63
2021/12/09 13:05:05;;;;;;;12.95;4.72;;;12.20;86.40;;;;;;5071692;28;20039;-63
2021/12/09 13:13:29;;;;;;;14.75;5.10;;;12.20;85.80;;;;;;5088836;28;20434;-63
2021/12/09 13:16:20;;;;;;;18.50;5.25;;;12.20;85.50;;;;;;5088660;28;20028;-60
2021/12/09 13:19:12;;;;;;;11.80;4.75;;;12.20;85.80;;;;;;5090621;28;20020;-62
2021/12/09 13:21:59;;;;;;;10.87;4.70;;;12.20;85.50;;;;;;5085380;28;20097;-65
2021/12/09 13:30:29;;;;;;;17.02;4.25;;;12.40;87.20;;;;;;5085966;28;20047;-69
2021/12/09 13:33:08;;;;;;;11.02;3.65;;;12.40;86.80;;;;;;5080274;28;20024;-66
2021/12/09 13:49:10;;;;;;;19.35;4.60;;;12.70;86.50;;;;;;5086074;28;20040;-68
2021/12/09 13:54:26;;;;;;;14.10;4.78;;;12.80;86.30;;;;;;5076660;28;20362;-66
2021/12/09 13:57:00;;;;;;;11.55;4.15;;;12.80;84.60;;;;;;5081707;28;20443;-70
2021/12/09 13:59:29;;;;;;;13.68;3.00;;;12.80;84.90;;;;;;5089279;28;20025;-69
2021/12/09 14:01:57;;;;;;;16.23;3.42;;;12.90;85.30;;;;;;5073252;28;20435;-66
2021/12/09 14:04:32;;;;;;;14.95;3.90;;;12.90;84.90;;;;;;5077679;28;20105;-65